createdAt,value
2023-03-16T00:01:12.316Z,-1.39
2023-03-16T00:04:13.812Z,-1.41
2023-03-16T00:07:15.378Z,-1.53
2023-03-16T00:10:16.965Z,-1.53
2023-03-16T00:13:19.238Z,-1.50
2023-03-16T00:16:20.758Z,-1.53
2023-03-16T00:19:25.107Z,-1.56
2023-03-16T00:22:27.998Z,-1.59
2023-03-16T00:25:29.799Z,-1.62
2023-03-16T00:28:35.060Z,-1.59
2023-03-16T00:31:36.579Z,-1.55
2023-03-16T00:34:38.061Z,-1.48
2023-03-16T00:37:39.982Z,-1.57
2023-03-16T00:40:41.530Z,-1.58
2023-03-16T00:43:45.325Z,-1.61
2023-03-16T00:46:46.835Z,-1.59
2023-03-16T00:49:48.350Z,-1.61
2023-03-16T00:52:49.857Z,-1.59
2023-03-16T00:55:53.401Z,-1.55
2023-03-16T00:58:57.876Z,-1.56
2023-03-16T01:01:59.498Z,-1.58
2023-03-16T01:05:01.924Z,-1.66
2023-03-16T01:08:04.289Z,-1.65
2023-03-16T01:11:06.889Z,-1.64
2023-03-16T01:14:09.078Z,-1.71
2023-03-16T01:17:10.791Z,-1.78
2023-03-16T01:20:12.590Z,-1.78
2023-03-16T01:23:14.319Z,-1.79
2023-03-16T01:26:17.759Z,-1.83
2023-03-16T01:29:19.222Z,-1.80
2023-03-16T01:32:20.716Z,-1.80
2023-03-16T01:35:22.305Z,-1.83
2023-03-16T01:38:23.834Z,-1.85
2023-03-16T01:41:27.008Z,-1.91
2023-03-16T01:44:30.792Z,-1.89
2023-03-16T01:47:38.336Z,-1.87
2023-03-16T01:50:40.179Z,-1.92
2023-03-16T01:53:41.864Z,-1.96
2023-03-16T01:56:48.191Z,-1.91
2023-03-16T02:00:18.496Z,-1.91
2023-03-16T02:03:20.044Z,-1.95
2023-03-16T02:06:23.573Z,-1.95
2023-03-16T02:09:25.049Z,-1.93
2023-03-16T02:12:26.557Z,-2.02
2023-03-16T02:15:28.113Z,-2.05
2023-03-16T02:18:29.728Z,-2.00
2023-03-16T02:21:39.410Z,-1.95
2023-03-16T02:24:43.230Z,-1.97
2023-03-16T02:28:02.703Z,-1.98
2023-03-16T02:31:04.889Z,-2.01
2023-03-16T02:34:06.734Z,-2.04
2023-03-16T02:37:08.749Z,-1.80
2023-03-16T02:40:21.078Z,-1.84
2023-03-16T02:43:23.494Z,-1.81
2023-03-16T02:46:26.786Z,-1.85
2023-03-16T02:49:36.843Z,-1.83
2023-03-16T02:52:38.391Z,-1.84
2023-03-16T02:55:39.932Z,-1.96
2023-03-16T02:58:41.425Z,-1.93
2023-03-16T03:01:42.910Z,-1.92
2023-03-16T03:04:46.320Z,-1.93
2023-03-16T03:07:47.886Z,-1.90
2023-03-16T03:10:49.559Z,-1.95
2023-03-16T03:13:51.020Z,-1.98
2023-03-16T03:16:52.824Z,-2.04
2023-03-16T03:19:54.668Z,-2.12
2023-03-16T03:22:56.176Z,-2.13
2023-03-16T03:25:58.564Z,-2.13
2023-03-16T03:29:00.095Z,-2.18
2023-03-16T03:32:02.216Z,-2.23
2023-03-16T03:35:03.907Z,-2.17
2023-03-16T03:38:05.374Z,-2.19
2023-03-16T03:41:09.729Z,-2.20
2023-03-16T03:44:11.372Z,-2.16
2023-03-16T03:47:12.952Z,-2.12
2023-03-16T03:50:14.519Z,-2.11
2023-03-16T03:53:15.963Z,-2.12
2023-03-16T03:56:17.424Z,-2.14
2023-03-16T03:59:18.890Z,-2.16
2023-03-16T04:02:20.553Z,-2.15
2023-03-16T04:05:22.280Z,-2.16
2023-03-16T04:08:23.738Z,-2.20
2023-03-16T04:11:25.198Z,-2.27
2023-03-16T04:14:27.558Z,-2.32
2023-03-16T04:17:29.050Z,-2.35
2023-03-16T04:20:30.562Z,-2.34
2023-03-16T04:23:33.412Z,-2.36
2023-03-16T04:26:34.890Z,-2.37
2023-03-16T04:29:36.678Z,-2.35
2023-03-16T04:32:38.417Z,-2.32
2023-03-16T04:35:40.038Z,-2.37
2023-03-16T04:38:42.026Z,-2.36
2023-03-16T04:41:43.517Z,-2.36
2023-03-16T04:44:44.960Z,-2.38
2023-03-16T04:47:46.409Z,-2.31
2023-03-16T04:50:49.222Z,-2.23
2023-03-16T04:53:51.381Z,-2.30
2023-03-16T04:56:52.832Z,-2.34
2023-03-16T04:59:54.319Z,-2.34
2023-03-16T05:02:55.753Z,-2.36
2023-03-16T05:05:57.255Z,-2.37
2023-03-16T05:09:00.440Z,-2.40
2023-03-16T05:12:01.884Z,-2.46
2023-03-16T05:15:03.882Z,-2.46
2023-03-16T05:18:05.478Z,-2.50
2023-03-16T05:21:06.994Z,-2.48
2023-03-16T05:24:12.147Z,-2.43
2023-03-16T05:27:13.620Z,-2.47
2023-03-16T05:30:16.386Z,-2.44
2023-03-16T05:33:17.687Z,-2.40
2023-03-16T05:36:19.184Z,-2.42
2023-03-16T05:39:20.731Z,-2.43
2023-03-16T05:42:22.221Z,-2.42
2023-03-16T05:45:24.215Z,-2.43
2023-03-16T05:48:25.779Z,-2.40
2023-03-16T05:51:27.352Z,-2.46
2023-03-16T05:54:28.796Z,-2.41
2023-03-16T05:57:30.323Z,-2.29
2023-03-16T06:00:32.017Z,-2.30
2023-03-16T06:03:33.518Z,-2.29
2023-03-16T06:06:35.307Z,-2.30
2023-03-16T06:09:36.874Z,-2.17
2023-03-16T06:12:38.550Z,-2.22
2023-03-16T06:15:40.636Z,-2.27
2023-03-16T06:18:42.182Z,-2.18
2023-03-16T06:21:43.735Z,-2.16
2023-03-16T06:24:45.333Z,-2.15
2023-03-16T06:27:47.713Z,-2.11
2023-03-16T06:30:49.249Z,-1.95
2023-03-16T06:33:51.544Z,-1.91
2023-03-16T06:36:53.411Z,-1.83
2023-03-16T06:39:55.005Z,-1.75
2023-03-16T06:42:56.753Z,-1.77
2023-03-16T06:45:58.991Z,-1.66
2023-03-16T06:49:01.041Z,-1.62
2023-03-16T06:52:03.360Z,-1.52
2023-03-16T06:55:05.506Z,-1.45
2023-03-16T06:58:07.323Z,-1.51
2023-03-16T07:01:08.918Z,-1.31
2023-03-16T07:04:11.085Z,-1.24
2023-03-16T07:07:12.678Z,-1.15
2023-03-16T07:10:15.845Z,-1.18
2023-03-16T07:13:17.646Z,-1.03
2023-03-16T07:16:19.223Z,-0.92
2023-03-16T07:19:20.733Z,-0.82
2023-03-16T07:22:22.205Z,-0.54
2023-03-16T07:25:23.676Z,-0.38
2023-03-16T07:28:25.135Z,-0.33
2023-03-16T07:31:26.752Z,-0.19
2023-03-16T07:34:28.297Z,-0.06
2023-03-16T07:37:29.757Z,0.03
2023-03-16T07:40:31.820Z,0.02
2023-03-16T07:43:33.475Z,0.18
2023-03-16T07:46:35.308Z,0.39
2023-03-16T07:49:36.967Z,0.58
2023-03-16T07:52:38.523Z,0.79
2023-03-16T07:55:40.142Z,1.00
2023-03-16T07:58:41.958Z,1.13
2023-03-16T08:01:43.467Z,1.24
2023-03-16T08:04:45.221Z,1.43
2023-03-16T08:07:46.834Z,1.44
2023-03-16T08:10:49.019Z,1.84
2023-03-16T08:13:54.175Z,2.12
2023-03-16T08:16:55.886Z,2.69
2023-03-16T08:19:57.358Z,2.86
2023-03-16T08:22:59.053Z,3.30
2023-03-16T08:26:01.166Z,3.84
2023-03-16T08:29:03.599Z,4.14
2023-03-16T08:32:05.538Z,4.39
2023-03-16T08:35:14.052Z,4.62
2023-03-16T08:38:16.104Z,5.21
2023-03-16T08:41:17.741Z,5.60
2023-03-16T08:44:20.182Z,6.33
2023-03-16T08:47:22.213Z,6.82
2023-03-16T08:50:23.795Z,7.12
2023-03-16T08:53:25.380Z,7.46
2023-03-16T08:56:27.553Z,7.91
2023-03-16T08:59:30.653Z,8.36
2023-03-16T09:02:32.724Z,9.48
2023-03-16T09:05:34.319Z,10.26
2023-03-16T09:08:36.346Z,11.56
2023-03-16T09:11:37.856Z,11.80
2023-03-16T09:14:39.714Z,11.45
2023-03-16T09:17:41.769Z,12.00
2023-03-16T09:20:43.843Z,11.76
2023-03-16T09:23:45.443Z,12.22
2023-03-16T09:26:46.993Z,12.71
2023-03-16T09:29:49.451Z,12.21
2023-03-16T09:32:51.141Z,12.20
2023-03-16T09:35:52.820Z,11.72
2023-03-16T09:38:54.542Z,11.39
2023-03-16T09:41:56.787Z,11.01
2023-03-16T09:45:16.837Z,11.02
2023-03-16T09:48:18.732Z,11.13
2023-03-16T09:51:43.476Z,11.35
2023-03-16T09:54:59.807Z,11.70
2023-03-16T09:58:01.824Z,10.39
2023-03-16T10:01:16.869Z,10.83
2023-03-16T10:04:30.222Z,12.38
2023-03-16T10:07:51.099Z,12.99
2023-03-16T10:11:11.558Z,12.66
2023-03-16T10:14:23.928Z,12.58
2023-03-16T10:17:37.977Z,12.89
2023-03-16T10:20:41.987Z,14.01
2023-03-16T10:23:44.404Z,14.31
2023-03-16T10:26:49.268Z,14.44
2023-03-16T10:29:50.871Z,14.06
2023-03-16T10:32:52.596Z,15.16
2023-03-16T10:36:05.714Z,13.87
2023-03-16T10:39:08.812Z,15.62
2023-03-16T10:42:17.596Z,16.11
2023-03-16T10:45:24.220Z,16.11
2023-03-16T10:48:26.694Z,15.81
2023-03-16T10:51:33.658Z,16.64
2023-03-16T10:54:36.220Z,16.33
2023-03-16T10:57:41.668Z,15.45
2023-03-16T11:00:43.472Z,14.81
2023-03-16T11:03:47.589Z,14.11
2023-03-16T11:06:52.952Z,14.34
2023-03-16T11:09:59.688Z,16.03
2023-03-16T11:13:17.937Z,15.22
2023-03-16T11:16:51.094Z,16.66
2023-03-16T11:19:54.504Z,17.41
2023-03-16T11:22:56.287Z,16.76
2023-03-16T11:25:58.756Z,15.17
2023-03-16T11:29:11.116Z,14.61
2023-03-16T11:32:16.272Z,14.04
2023-03-16T11:35:19.540Z,15.37
2023-03-16T11:38:26.847Z,15.91
2023-03-16T11:41:41.963Z,16.37
2023-03-16T11:44:44.729Z,16.44
2023-03-16T11:48:06.720Z,16.61
2023-03-16T11:51:17.546Z,14.64
2023-03-16T11:54:31.143Z,16.18
2023-03-16T11:57:53.722Z,14.28
2023-03-16T12:01:08.835Z,15.58
2023-03-16T12:04:29.208Z,15.40
2023-03-16T12:08:00.694Z,15.73
2023-03-16T12:11:04.531Z,16.04
2023-03-16T12:14:15.633Z,16.19
2023-03-16T12:17:20.645Z,16.97
2023-03-16T12:20:43.509Z,17.63
2023-03-16T12:23:52.454Z,16.97
2023-03-16T12:26:54.023Z,17.68
2023-03-16T12:29:56.994Z,18.41
2023-03-16T12:33:00.815Z,18.22
2023-03-16T12:36:39.965Z,17.60
2023-03-16T12:40:07.141Z,17.53
2023-03-16T12:43:31.432Z,16.25
2023-03-16T12:47:06.918Z,17.38
2023-03-16T12:50:11.356Z,16.95
2023-03-16T12:53:28.643Z,17.27
2023-03-16T12:56:35.864Z,17.16
2023-03-16T12:59:42.942Z,18.20
2023-03-16T13:02:49.641Z,18.19
2023-03-16T13:05:53.369Z,17.99
2023-03-16T13:08:59.715Z,17.80
2023-03-16T13:12:05.055Z,18.37
2023-03-16T13:15:19.431Z,19.01
2023-03-16T13:18:22.419Z,16.71
2023-03-16T13:21:37.198Z,17.05
2023-03-16T13:24:40.077Z,17.30
2023-03-16T13:27:44.595Z,16.99
2023-03-16T13:30:49.431Z,15.33
2023-03-16T13:33:53.730Z,15.20
2023-03-16T13:36:57.008Z,15.59
2023-03-16T13:40:04.620Z,15.18
2023-03-16T13:43:06.801Z,14.80
2023-03-16T13:46:19.391Z,14.52
2023-03-16T13:49:21.081Z,15.05
2023-03-16T13:52:28.144Z,15.19
2023-03-16T13:55:32.098Z,17.01
2023-03-16T13:58:35.715Z,17.24
2023-03-16T14:01:37.480Z,16.77
2023-03-16T14:04:39.354Z,16.73
2023-03-16T14:07:41.159Z,18.00
2023-03-16T14:10:43.649Z,16.98
2023-03-16T14:13:50.756Z,17.21
2023-03-16T14:16:52.990Z,16.89
2023-03-16T14:19:59.790Z,16.07
2023-03-16T14:23:01.325Z,16.85
2023-03-16T14:26:04.978Z,16.57
2023-03-16T14:29:27.039Z,16.34
2023-03-16T14:32:30.476Z,16.92
2023-03-16T14:35:42.812Z,17.92
2023-03-16T14:38:54.407Z,18.04
2023-03-16T14:41:55.985Z,18.57
2023-03-16T14:44:58.738Z,18.31
2023-03-16T14:48:10.480Z,16.51
2023-03-16T14:51:13.249Z,15.95
2023-03-16T14:54:19.664Z,16.47
2023-03-16T14:57:21.539Z,16.20
2023-03-16T15:00:23.248Z,15.82
2023-03-16T15:03:30.185Z,15.48
2023-03-16T15:06:32.759Z,15.33
2023-03-16T15:09:37.276Z,14.95
2023-03-16T15:12:40.863Z,14.91
2023-03-16T15:15:42.675Z,14.98
2023-03-16T15:18:44.293Z,14.60
2023-03-16T15:21:46.002Z,13.57
2023-03-16T15:24:47.717Z,13.23
2023-03-16T15:27:49.294Z,12.90
2023-03-16T15:30:52.612Z,12.97
2023-03-16T15:33:54.214Z,12.58
2023-03-16T15:36:56.273Z,12.64
2023-03-16T15:39:57.719Z,12.85
2023-03-16T15:42:59.219Z,12.54
2023-03-16T15:46:00.836Z,12.36
2023-03-16T15:49:02.402Z,12.19
2023-03-16T15:52:07.522Z,12.22
2023-03-16T15:55:35.150Z,12.06
2023-03-16T15:58:36.740Z,12.03
2023-03-16T16:04:47.512Z,11.77
2023-03-16T16:07:49.057Z,11.89
2023-03-16T16:10:53.496Z,11.54
2023-03-16T16:13:55.895Z,11.60
2023-03-16T16:16:57.409Z,11.49
2023-03-16T16:19:59.545Z,11.44
2023-03-16T16:23:03.044Z,11.38
2023-03-16T16:26:07.938Z,11.21
2023-03-16T16:29:27.214Z,11.08
2023-03-16T16:32:28.801Z,10.85
2023-03-16T16:35:30.694Z,10.73
2023-03-16T16:38:32.519Z,10.83
2023-03-16T16:41:34.306Z,10.99
2023-03-16T16:44:37.982Z,10.99
2023-03-16T16:47:39.714Z,10.95
2023-03-16T16:50:41.624Z,10.81
2023-03-16T16:53:43.160Z,10.86
2023-03-16T16:56:44.840Z,10.92
2023-03-16T16:59:47.968Z,10.82
2023-03-16T17:02:51.728Z,10.54
2023-03-16T17:05:53.669Z,10.53
2023-03-16T17:08:55.441Z,10.26
2023-03-16T17:12:01.013Z,10.28
2023-03-16T17:15:02.814Z,9.91
2023-03-16T17:18:10.757Z,9.84
2023-03-16T17:21:17.094Z,9.82
2023-03-16T17:24:18.725Z,9.40
2023-03-16T17:27:27.016Z,9.52
2023-03-16T17:30:29.775Z,9.29
2023-03-16T17:33:31.925Z,9.24
2023-03-16T17:36:33.516Z,9.19
2023-03-16T17:39:35.209Z,9.14
2023-03-16T17:42:36.796Z,9.08
2023-03-16T17:45:38.291Z,8.97
2023-03-16T17:48:40.230Z,8.73
2023-03-16T17:51:42.708Z,8.59
2023-03-16T17:54:46.359Z,8.39
2023-03-16T17:57:49.306Z,8.42
2023-03-16T18:00:51.081Z,8.27
2023-03-16T18:03:52.675Z,8.14
2023-03-16T18:06:55.440Z,8.03
2023-03-16T18:09:57.033Z,7.76
2023-03-16T18:13:31.779Z,7.83
2023-03-16T18:16:33.510Z,7.72
2023-03-16T18:19:35.536Z,7.52
2023-03-16T18:22:37.120Z,7.38
2023-03-16T18:25:42.235Z,7.32
2023-03-16T18:28:43.927Z,7.16
2023-03-16T18:31:45.981Z,7.02
2023-03-16T18:34:47.651Z,6.92
2023-03-16T18:37:49.251Z,6.76
2023-03-16T18:40:50.788Z,6.65
2023-03-16T18:43:53.768Z,6.63
2023-03-16T18:46:58.717Z,6.56
2023-03-16T18:50:00.356Z,6.35
2023-03-16T18:53:02.328Z,6.14
2023-03-16T18:56:04.385Z,6.09
2023-03-16T18:59:06.639Z,5.99
2023-03-16T19:02:41.477Z,5.88
2023-03-16T19:05:43.036Z,5.72
2023-03-16T19:08:44.766Z,5.95
2023-03-16T19:11:46.966Z,6.00
2023-03-16T19:14:48.635Z,5.95
2023-03-16T19:17:50.534Z,5.81
2023-03-16T19:20:52.203Z,5.62
2023-03-16T19:23:58.557Z,5.65
2023-03-16T19:27:00.092Z,5.60
2023-03-16T19:30:01.688Z,5.65
2023-03-16T19:33:03.408Z,5.37
2023-03-16T19:36:07.080Z,5.29
2023-03-16T19:39:12.516Z,5.30
2023-03-16T19:42:22.263Z,5.26
2023-03-16T19:45:25.595Z,5.27
2023-03-16T19:48:36.510Z,5.31
2023-03-16T19:51:38.125Z,5.11
2023-03-16T19:54:42.413Z,5.16
2023-03-16T19:57:44.674Z,5.11
2023-03-16T20:00:47.156Z,5.02
2023-03-16T20:03:49.095Z,4.99
2023-03-16T20:06:50.944Z,4.93
2023-03-16T20:09:52.611Z,5.03
2023-03-16T20:12:58.472Z,5.03
2023-03-16T20:16:00.586Z,4.98
2023-03-16T20:19:05.290Z,4.89
2023-03-16T20:22:13.407Z,4.87
2023-03-16T20:25:16.223Z,4.73
2023-03-16T20:28:24.351Z,4.64
2023-03-16T20:31:27.138Z,4.63
2023-03-16T20:34:31.039Z,4.74
2023-03-16T20:37:32.708Z,4.62
2023-03-16T20:40:34.286Z,4.68
2023-03-16T20:43:36.269Z,4.61
2023-03-16T20:46:41.147Z,4.59
2023-03-16T20:49:44.018Z,4.38
2023-03-16T20:52:45.537Z,4.32
2023-03-16T20:55:47.755Z,4.42
2023-03-16T20:58:50.284Z,4.26
2023-03-16T21:01:54.590Z,4.17
2023-03-16T21:04:57.006Z,4.18
2023-03-16T21:07:58.627Z,4.13
2023-03-16T21:11:00.416Z,4.04
2023-03-16T21:14:02.218Z,3.98
2023-03-16T21:17:10.504Z,3.97
2023-03-16T21:20:17.545Z,3.96
2023-03-16T21:23:23.176Z,3.94
2023-03-16T21:26:25.020Z,3.91
2023-03-16T21:29:27.481Z,3.91
2023-03-16T21:32:31.156Z,3.80
2023-03-16T21:35:34.501Z,3.73
2023-03-16T21:38:36.325Z,3.92
2023-03-16T21:41:38.083Z,3.99
2023-03-16T21:44:39.588Z,3.94
2023-03-16T21:47:41.227Z,3.97
2023-03-16T21:50:42.842Z,4.04
2023-03-16T21:53:44.838Z,3.84
2023-03-16T21:56:46.533Z,3.82
2023-03-16T21:59:48.133Z,3.87
2023-03-16T22:02:51.232Z,3.76
2023-03-16T22:05:53.860Z,3.70
2023-03-16T22:08:55.826Z,3.82
2023-03-16T22:11:57.363Z,3.87
2023-03-16T22:14:58.973Z,3.71
2023-03-16T22:18:03.096Z,3.81
2023-03-16T22:21:24.974Z,3.80
2023-03-16T22:24:27.985Z,3.81
2023-03-16T22:27:30.122Z,3.80
2023-03-16T22:30:31.924Z,3.79
2023-03-16T22:33:34.910Z,3.56
2023-03-16T22:36:36.580Z,3.56
2023-03-16T22:39:38.386Z,3.46
2023-03-16T22:42:39.952Z,3.41
2023-03-16T22:45:41.629Z,3.24
2023-03-16T22:48:43.237Z,3.18
2023-03-16T22:51:44.817Z,3.12
2023-03-16T22:54:46.583Z,3.03
2023-03-16T22:57:50.260Z,2.99
2023-03-16T23:00:51.824Z,3.00
2023-03-16T23:03:53.753Z,3.00
2023-03-16T23:06:55.547Z,2.92
2023-03-16T23:09:57.074Z,2.89
2023-03-16T23:12:59.499Z,2.96
2023-03-16T23:16:01.312Z,3.00
2023-03-16T23:19:09.823Z,3.01
2023-03-16T23:22:14.211Z,2.99
2023-03-16T23:25:15.754Z,2.85
2023-03-16T23:28:22.964Z,2.72
2023-03-16T23:31:25.094Z,2.68
2023-03-16T23:34:26.656Z,2.62
2023-03-16T23:37:28.196Z,2.64
2023-03-16T23:40:29.955Z,2.72
2023-03-16T23:43:31.698Z,2.66
2023-03-16T23:46:33.725Z,2.68
2023-03-16T23:49:38.868Z,2.56
2023-03-16T23:52:40.423Z,2.49
2023-03-16T23:55:42.104Z,2.51
2023-03-16T23:58:43.765Z,2.67
